RJKN(METAR)
12/04 19:00
METAR RJKN 041000Z AUTO 07003KT 9999 NCD 21/20 Q1016 RMK A3003=
戻る
トップページへ戻る
IMOC Co,.Ltd.